Aberdeen, Arkansas
Current Conditions -  °F | °C
As of 6:35 PM on Saturday 20 Dec 2014 (Local Time) from KSGT Reporting Station
Clear Clear  
Wind Chill:   Ceiling: Unl
Heat Index:   Visibility: NA
Dew Point:   Wind: 6mph
Humidity: 81%   Direction: 50°NE
Pressure: 30.24"   Gusts: NA
Location:  34.6163°N, 91.3754°W
Report Text: KSGT 210035Z 05005KT CLR 05/02 A3024 RMK AO1
Loading
Personal Weather Stations






























Interactive Weather Map New forecast layout! Learn more

10-Day Weather Forecast

Advertisements
Track Severe Weather on mobile